Time;durP1;ratioP1;P1;durP2;ratioP2;P2;SDS_P1;SDS_P2;PMS_P1;PMS_P2;Temp;Humidity;BMP_temperature;BMP_pressure;BME280_temperature;BME280_humidity;BME280_pressure;Samples;Min_cycle;Max_cycle;Signal;HPM_P1;HPM_P2
2022/01/28 00:01:08;;;;;;;;;;;2.70;99.90;;;;;;5108628;27;19928;-82
2022/01/28 00:03:36;;;;;;;;;;;2.70;99.90;;;;;;5100208;27;19935;-82
2022/01/28 00:06:05;;;;;;;;;;;2.70;99.90;;;;;;5112538;27;19928;-82
2022/01/28 00:08:32;;;;;;;;;;;2.70;99.90;;;;;;5106753;27;19931;-83
2022/01/28 00:11:00;;;;;;;;;;;2.70;99.90;;;;;;5103311;27;19928;-82
2022/01/28 00:13:33;;;;;;;;;;;2.70;99.90;;;;;;5107696;28;19924;-82
2022/01/28 00:38:11;;;;;;;;;;;2.70;99.90;;;;;;5089817;28;20731;-82
2022/01/28 00:40:39;;;;;;;;;;;2.70;99.90;;;;;;5105963;28;19963;-82
2022/01/28 00:43:07;;;;;;;;;;;2.70;99.90;;;;;;5110874;28;19933;-82
2022/01/28 00:45:34;;;;;;;;;;;2.70;99.90;;;;;;5109379;28;20361;-82
2022/01/28 00:48:02;;;;;;;;;;;2.70;99.90;;;;;;5089081;28;19935;-82
2022/01/28 00:50:29;;;;;;;;;;;2.80;99.90;;;;;;5104983;28;19924;-82
2022/01/28 00:52:56;;;;;;;;;;;2.80;99.90;;;;;;5085287;28;19939;-82
2022/01/28 00:55:25;;;;;;;;;;;2.80;99.90;;;;;;5107782;28;19923;-82
2022/01/28 00:57:52;;;;;;;;;;;2.80;99.90;;;;;;5091094;28;19989;-81
2022/01/28 01:00:19;;;;;;;;;;;2.70;99.90;;;;;;5094432;28;19927;-82
2022/01/28 01:02:46;;;;;;;;;;;2.80;99.90;;;;;;5102149;28;19954;-82
2022/01/28 01:05:13;;;;;;;;;;;2.80;99.90;;;;;;5113392;28;19931;-82
2022/01/28 01:07:41;;;;;;;;;;;2.70;99.90;;;;;;5104914;28;19924;-82
2022/01/28 01:10:09;;;;;;;;;;;2.80;99.90;;;;;;5086826;28;19931;-82
2022/01/28 01:12:42;;;;;;;;;;;2.80;99.90;;;;;;5100810;28;19932;-82
2022/01/28 01:15:10;;;;;;;;;;;2.80;99.90;;;;;;5096451;28;19924;-82
2022/01/28 01:17:41;;;;;;;;;;;2.80;99.90;;;;;;5100881;28;20405;-82
2022/01/28 01:20:21;;;;;;;;;;;2.80;99.90;;;;;;5090352;28;19924;-82
2022/01/28 01:22:55;;;;;;;;;;;2.70;99.90;;;;;;5107033;28;19935;-82
2022/01/28 01:25:27;;;;;;;;;;;2.70;99.90;;;;;;5090119;28;20405;-82
2022/01/28 01:27:58;;;;;;;;;;;2.70;99.90;;;;;;5104799;28;20383;-82
2022/01/28 01:30:27;;;;;;;;;;;2.70;99.90;;;;;;5100547;28;19946;-82
2022/01/28 01:32:54;;;;;;;;;;;2.70;99.90;;;;;;5098459;28;19924;-82
2022/01/28 01:35:22;;;;;;;;;;;2.70;99.90;;;;;;5119083;27;20299;-82
2022/01/28 01:37:49;;;;;;;;;;;2.70;99.90;;;;;;5087383;28;20474;-81
2022/01/28 01:40:25;;;;;;;;;;;2.70;99.90;;;;;;5106140;27;19931;-82
2022/01/28 01:43:04;;;;;;;;;;;2.70;99.90;;;;;;5099570;28;19924;-82
2022/01/28 01:54:07;;;;;;;;;;;2.70;99.90;;;;;;5094279;27;19923;-82
2022/01/28 01:56:35;;;;;;;;;;;2.80;99.90;;;;;;5093006;27;19923;-81
2022/01/28 01:59:02;;;;;;;;;;;2.70;99.90;;;;;;5109412;27;19932;-82
2022/01/28 02:01:30;;;;;;;;;;;2.70;99.90;;;;;;5109348;27;19924;-82
2022/01/28 02:03:57;;;;;;;;;;;2.80;99.90;;;;;;5113116;27;19931;-82
2022/01/28 02:06:24;;;;;;;;;;;2.70;99.90;;;;;;5104250;27;19924;-82
2022/01/28 02:08:51;;;;;;;;;;;2.70;99.90;;;;;;5104858;27;19924;-81
2022/01/28 02:11:18;;;;;;;;;;;2.70;99.90;;;;;;5109231;28;20448;-82
2022/01/28 02:13:51;;;;;;;;;;;2.70;99.90;;;;;;5104668;27;19931;-82
2022/01/28 02:16:18;;;;;;;;;;;2.70;99.90;;;;;;5093612;28;19924;-82
2022/01/28 02:18:47;;;;;;;;;;;2.70;99.90;;;;;;5109049;27;19941;-82
2022/01/28 02:21:17;;;;;;;;;;;2.70;99.90;;;;;;5090384;27;19931;-81
2022/01/28 02:23:49;;;;;;;;;;;2.70;99.90;;;;;;5108464;27;19924;-81
2022/01/28 02:26:17;;;;;;;;;;;2.70;99.90;;;;;;5109472;27;19927;-82
2022/01/28 02:28:47;;;;;;;;;;;2.80;99.90;;;;;;5088226;28;19930;-81
2022/01/28 02:31:19;;;;;;;;;;;2.70;99.90;;;;;;5085571;27;20026;-81
2022/01/28 02:33:45;;;;;;;;;;;2.70;99.90;;;;;;5110123;27;19931;-82
2022/01/28 02:36:13;;;;;;;;;;;2.70;99.90;;;;;;5108991;27;20406;-82
2022/01/28 02:38:41;;;;;;;;;;;2.70;99.90;;;;;;5090400;28;19931;-82
2022/01/28 02:41:08;;;;;;;;;;;2.80;99.90;;;;;;5109253;27;20438;-81
2022/01/28 02:43:40;;;;;;;;;;;2.70;99.90;;;;;;5090563;28;19924;-82
2022/01/28 02:46:09;;;;;;;;;;;2.70;99.90;;;;;;5107279;27;19925;-82
2022/01/28 02:48:39;;;;;;;;;;;2.70;99.90;;;;;;5105220;27;19928;-81
2022/01/28 02:51:12;;;;;;;;;;;2.70;99.90;;;;;;5108030;27;20387;-82
2022/01/28 02:53:48;;;;;;;;;;;2.70;99.90;;;;;;5109510;27;19930;-82
2022/01/28 02:56:21;;;;;;;;;;;2.70;99.90;;;;;;5106799;27;20053;-82
2022/01/28 02:58:48;;;;;;;;;;;2.70;99.90;;;;;;5115821;27;20303;-82
2022/01/28 03:01:17;;;;;;;;;;;2.70;99.90;;;;;;5110676;27;19931;-82
2022/01/28 03:03:45;;;;;;;;;;;2.70;99.90;;;;;;5100862;27;19924;-82
2022/01/28 03:06:17;;;;;;;;;;;2.70;99.90;;;;;;5110151;27;20466;-82
2022/01/28 03:08:51;;;;;;;;;;;2.70;99.90;;;;;;5104322;27;20387;-81
2022/01/28 03:14:16;;;;;;;;;;;2.70;99.90;;;;;;5092619;27;19931;-82
2022/01/28 03:16:58;;;;;;;;;;;2.70;99.90;;;;;;5108155;27;20065;-82
2022/01/28 03:19:28;;;;;;;;;;;2.70;99.90;;;;;;5108995;27;19923;-82
2022/01/28 03:21:56;;;;;;;;;;;2.70;99.90;;;;;;5108713;27;20456;-82
2022/01/28 03:24:25;;;;;;;;;;;2.70;99.90;;;;;;5084722;28;19927;-82
2022/01/28 03:26:57;;;;;;;;;;;2.70;99.90;;;;;;5108970;27;20027;-82
2022/01/28 03:29:24;;;;;;;;;;;2.70;99.90;;;;;;5088731;28;20105;-82
2022/01/28 03:31:51;;;;;;;;;;;2.70;99.90;;;;;;5110608;27;19979;-82
2022/01/28 03:34:19;;;;;;;;;;;2.70;99.90;;;;;;5103221;27;20414;-82
2022/01/28 03:36:46;;;;;;;;;;;2.70;99.90;;;;;;5085844;28;19924;-82
2022/01/28 03:39:13;;;;;;;;;;;2.70;99.90;;;;;;5085762;28;19932;-82
2022/01/28 03:41:43;;;;;;;;;;;2.70;99.90;;;;;;5110481;27;20188;-82
2022/01/28 03:44:12;;;;;;;;;;;2.70;99.90;;;;;;5084012;28;19928;-82
2022/01/28 03:46:40;;;;;;;;;;;2.70;99.90;;;;;;5111791;27;19932;-82
2022/01/28 03:49:09;;;;;;;;;;;2.70;99.90;;;;;;5102277;27;19924;-82
2022/01/28 03:51:36;;;;;;;;;;;2.70;99.90;;;;;;5108467;27;19971;-81
2022/01/28 03:54:06;;;;;;;;;;;2.70;99.90;;;;;;5080628;28;19932;-82
2022/01/28 03:56:34;;;;;;;;;;;2.70;99.90;;;;;;5090716;27;20014;-82
2022/01/28 03:59:06;;;;;;;;;;;2.70;99.90;;;;;;5108340;27;19932;-82
2022/01/28 04:01:36;;;;;;;;;;;2.70;99.90;;;;;;5105561;28;19932;-82
2022/01/28 04:12:24;;;;;;;;;;;2.70;99.90;;;;;;5107048;27;19932;-82
2022/01/28 04:15:21;;;;;;;;;;;2.70;99.90;;;;;;5094429;28;19932;-81
2022/01/28 04:17:48;;;;;;;;;;;2.70;99.90;;;;;;5102558;27;20241;-82
2022/01/28 04:20:16;;;;;;;;;;;2.70;99.90;;;;;;5113109;27;19945;-81
2022/01/28 04:22:44;;;;;;;;;;;2.70;99.90;;;;;;5103165;28;19923;-82
2022/01/28 04:25:11;;;;;;;;;;;2.70;99.90;;;;;;5110331;28;19935;-82
2022/01/28 04:27:38;;;;;;;;;;;2.70;99.90;;;;;;5104419;27;19924;-82
2022/01/28 04:30:09;;;;;;;;;;;2.70;99.90;;;;;;5110346;27;19935;-82
2022/01/28 04:32:39;;;;;;;;;;;2.70;99.90;;;;;;5090528;28;19923;-82
2022/01/28 04:35:06;;;;;;;;;;;2.70;99.90;;;;;;5108919;28;19947;-81
2022/01/28 04:37:41;;;;;;;;;;;2.70;99.90;;;;;;5105883;28;19931;-82
2022/01/28 04:40:14;;;;;;;;;;;2.60;99.90;;;;;;5090236;28;19953;-82
2022/01/28 04:45:43;;;;;;;;;;;2.70;99.90;;;;;;5145423;27;19919;-82
2022/01/28 04:48:20;;;;;;;;;;;2.70;99.90;;;;;;5126574;27;21560;-82
2022/01/28 04:51:03;;;;;;;;;;;2.70;99.90;;;;;;5126598;27;19945;-81
2022/01/28 04:53:42;;;;;;;;;;;2.70;99.90;;;;;;5091251;28;19958;-82
2022/01/28 04:56:23;;;;;;;;;;;2.60;99.90;;;;;;5111485;28;19924;-82
2022/01/28 04:59:19;;;;;;;;;;;2.70;99.90;;;;;;5106961;28;19985;-82
2022/01/28 05:02:13;;;;;;;;;;;2.60;99.90;;;;;;5093628;28;19932;-82
2022/01/28 05:04:59;;;;;;;;;;;2.60;99.90;;;;;;5098657;28;20666;-82
2022/01/28 05:07:40;;;;;;;;;;;2.60;99.90;;;;;;5109945;28;20132;-82
2022/01/28 05:24:45;;;;;;;;;;;2.70;99.90;;;;;;5117495;28;19951;-82
2022/01/28 05:27:15;;;;;;;;;;;2.60;99.90;;;;;;5119018;28;20026;-82
2022/01/28 05:29:42;;;;;;;;;;;2.60;99.90;;;;;;5099775;28;19932;-81
2022/01/28 05:32:09;;;;;;;;;;;2.60;99.90;;;;;;5113801;28;19928;-82
2022/01/28 05:34:38;;;;;;;;;;;2.60;99.90;;;;;;5114589;28;19975;-82
2022/01/28 05:37:15;;;;;;;;;;;2.60;99.90;;;;;;5097359;28;19923;-82
2022/01/28 05:39:42;;;;;;;;;;;2.60;99.90;;;;;;5111839;28;19975;-81
2022/01/28 05:42:09;;;;;;;;;;;2.60;99.90;;;;;;5115489;27;19925;-82
2022/01/28 05:44:36;;;;;;;;;;;2.60;99.90;;;;;;5098518;28;19957;-83
2022/01/28 05:47:03;;;;;;;;;;;2.60;99.90;;;;;;5118152;28;20022;-82
2022/01/28 05:49:38;;;;;;;;;;;2.60;99.90;;;;;;5115709;28;19925;-82
2022/01/28 05:52:07;;;;;;;;;;;2.60;99.90;;;;;;5093207;28;20008;-82
2022/01/28 05:54:34;;;;;;;;;;;2.60;99.90;;;;;;5097363;28;20289;-82
2022/01/28 05:57:01;;;;;;;;;;;2.60;99.90;;;;;;5087741;28;19925;-81
2022/01/28 05:59:30;;;;;;;;;;;2.60;99.90;;;;;;5098264;28;19971;-82
2022/01/28 06:01:58;;;;;;;;;;;2.60;99.90;;;;;;5107408;28;20409;-82
2022/01/28 06:04:25;;;;;;;;;;;2.60;99.90;;;;;;5097312;28;19955;-82
2022/01/28 06:06:52;;;;;;;;;;;2.60;99.90;;;;;;5107030;28;19999;-82
2022/01/28 06:09:21;;;;;;;;;;;2.60;99.90;;;;;;5096175;28;20421;-82
2022/01/28 06:11:48;;;;;;;;;;;2.50;99.90;;;;;;5093135;28;19924;-82
2022/01/28 06:14:15;;;;;;;;;;;2.50;99.90;;;;;;5099918;28;19924;-82
2022/01/28 06:16:42;;;;;;;;;;;2.50;99.90;;;;;;5086837;28;19931;-82
2022/01/28 06:19:09;;;;;;;;;;;2.50;99.90;;;;;;5087568;28;19946;-82
2022/01/28 06:21:36;;;;;;;;;;;2.50;99.90;;;;;;5094418;28;19932;-82
2022/01/28 06:24:03;;;;;;;;;;;2.50;99.90;;;;;;5093273;28;19942;-82
2022/01/28 06:26:31;;;;;;;;;;;2.50;99.90;;;;;;5095323;28;19931;-82
2022/01/28 06:28:58;;;;;;;;;;;2.50;99.90;;;;;;5102283;28;19924;-82
2022/01/28 06:31:25;;;;;;;;;;;2.50;99.90;;;;;;5089118;28;19924;-82
2022/01/28 06:33:52;;;;;;;;;;;2.50;99.90;;;;;;5105684;28;19928;-83
2022/01/28 06:36:21;;;;;;;;;;;2.50;99.90;;;;;;5106005;28;19928;-82
2022/01/28 06:38:48;;;;;;;;;;;2.50;99.90;;;;;;5113458;28;19971;-82
2022/01/28 06:41:15;;;;;;;;;;;2.50;99.90;;;;;;5113530;28;19936;-82
2022/01/28 06:43:43;;;;;;;;;;;2.50;99.90;;;;;;5109881;28;19924;-82
2022/01/28 06:46:11;;;;;;;;;;;2.40;99.90;;;;;;5112286;28;20018;-82
2022/01/28 06:48:38;;;;;;;;;;;2.40;99.90;;;;;;5117409;28;19934;-82
2022/01/28 06:51:05;;;;;;;;;;;2.40;99.90;;;;;;5114071;28;20030;-82
2022/01/28 06:53:32;;;;;;;;;;;2.40;99.90;;;;;;5102342;28;19924;-82
2022/01/28 06:55:59;;;;;;;;;;;2.40;99.90;;;;;;5103561;28;19928;-82
2022/01/28 06:58:26;;;;;;;;;;;2.40;99.90;;;;;;5102430;28;20015;-82
2022/01/28 07:00:54;;;;;;;;;;;2.40;99.90;;;;;;5103879;28;20561;-82
2022/01/28 07:03:21;;;;;;;;;;;2.40;99.90;;;;;;5092314;28;19932;-82
2022/01/28 07:05:48;;;;;;;;;;;2.40;99.90;;;;;;5091323;28;19981;-82
2022/01/28 07:08:15;;;;;;;;;;;2.40;99.90;;;;;;5089073;28;19935;-82
2022/01/28 07:10:42;;;;;;;;;;;2.40;99.90;;;;;;5095061;28;19924;-81
2022/01/28 07:13:10;;;;;;;;;;;2.40;99.90;;;;;;5092513;28;19924;-82
2022/01/28 07:15:37;;;;;;;;;;;2.40;99.90;;;;;;5093855;28;20058;-81
2022/01/28 07:18:06;;;;;;;;;;;2.40;99.90;;;;;;5075662;28;19981;-82
2022/01/28 07:20:33;;;;;;;;;;;2.40;99.90;;;;;;5098107;28;19928;-82
2022/01/28 07:23:00;;;;;;;;;;;2.40;99.90;;;;;;5096281;28;19984;-82
2022/01/28 07:25:28;;;;;;;;;;;2.40;99.90;;;;;;5086194;28;19932;-81
2022/01/28 07:27:54;;;;;;;;;;;2.40;99.90;;;;;;5074641;28;19968;-81
2022/01/28 07:30:22;;;;;;;;;;;2.40;99.90;;;;;;5090756;28;19924;-79
2022/01/28 07:32:51;;;;;;;;;;;2.40;99.90;;;;;;5094422;28;19928;-81
2022/01/28 07:35:20;;;;;;;;;;;2.40;99.90;;;;;;5095052;28;20365;-81
2022/01/28 07:37:47;;;;;;;;;;;2.40;99.90;;;;;;5069928;28;19928;-82
2022/01/28 07:40:14;;;;;;;;;;;2.40;99.90;;;;;;5074163;28;19940;-82
2022/01/28 07:42:41;;;;;;;;;;;2.40;99.90;;;;;;5094700;28;20024;-82
2022/01/28 07:45:09;;;;;;;;;;;2.40;99.90;;;;;;5084413;28;19974;-82
2022/01/28 07:47:37;;;;;;;;;;;2.40;99.90;;;;;;5096173;28;20439;-82
2022/01/28 07:50:04;;;;;;;;;;;2.30;99.90;;;;;;5100469;28;19947;-82
2022/01/28 07:52:32;;;;;;;;;;;2.30;99.90;;;;;;5093394;28;19971;-81
2022/01/28 07:54:59;;;;;;;;;;;2.30;99.90;;;;;;5079115;28;20447;-82
2022/01/28 07:57:26;;;;;;;;;;;2.30;99.90;;;;;;5072574;28;19932;-80
2022/01/28 07:59:54;;;;;;;;;;;2.30;99.90;;;;;;5090487;28;19928;-80
2022/01/28 08:02:22;;;;;;;;;;;2.30;99.90;;;;;;5075985;28;20001;-81
2022/01/28 08:04:49;;;;;;;;;;;2.30;99.90;;;;;;5086906;28;19951;-82
2022/01/28 08:07:16;;;;;;;;;;;2.30;99.90;;;;;;5091267;28;19924;-81
2022/01/28 08:09:44;;;;;;;;;;;2.30;99.90;;;;;;5094591;28;19990;-81
2022/01/28 08:12:11;;;;;;;;;;;2.30;99.90;;;;;;5098299;28;19960;-81
2022/01/28 08:14:38;;;;;;;;;;;2.40;99.90;;;;;;5084094;28;19981;-82
2022/01/28 08:17:05;;;;;;;;;;;2.30;99.90;;;;;;5090984;28;19969;-80
2022/01/28 08:19:32;;;;;;;;;;;2.30;99.90;;;;;;5072559;28;19928;-82
2022/01/28 08:21:59;;;;;;;;;;;2.40;99.90;;;;;;5088335;28;19971;-81
2022/01/28 08:24:26;;;;;;;;;;;2.40;99.90;;;;;;5091399;28;19924;-82
2022/01/28 08:26:55;;;;;;;;;;;2.40;99.90;;;;;;5091377;28;19932;-81
2022/01/28 08:29:22;;;;;;;;;;;2.30;99.90;;;;;;5094955;28;19924;-82
2022/01/28 08:31:50;;;;;;;;;;;2.40;99.90;;;;;;5096891;28;19928;-82
2022/01/28 08:34:19;;;;;;;;;;;2.40;99.90;;;;;;5077615;28;19924;-82
2022/01/28 08:36:46;;;;;;;;;;;2.40;99.90;;;;;;5092226;28;19931;-82
2022/01/28 08:39:15;;;;;;;;;;;2.40;99.90;;;;;;5088363;28;19931;-81
2022/01/28 08:41:43;;;;;;;;;;;2.40;99.90;;;;;;5075524;28;19924;-82
2022/01/28 08:44:11;;;;;;;;;;;2.40;99.90;;;;;;5095390;28;19927;-82
2022/01/28 08:46:38;;;;;;;;;;;2.40;99.90;;;;;;5100930;28;19928;-82
2022/01/28 08:49:05;;;;;;;;;;;2.40;99.90;;;;;;5097005;28;19938;-82
2022/01/28 08:51:32;;;;;;;;;;;2.40;99.90;;;;;;5068880;28;20143;-82
2022/01/28 08:53:59;;;;;;;;;;;2.50;99.90;;;;;;5074051;28;19928;-82
2022/01/28 08:56:26;;;;;;;;;;;2.50;99.90;;;;;;5068025;28;19930;-82
2022/01/28 08:58:53;;;;;;;;;;;2.50;99.90;;;;;;5069921;28;20403;-80
2022/01/28 09:01:21;;;;;;;;;;;2.50;99.90;;;;;;5085146;28;20353;-82
2022/01/28 09:03:49;;;;;;;;;;;2.50;99.90;;;;;;5082460;28;20453;-81
2022/01/28 09:06:17;;;;;;;;;;;2.50;99.90;;;;;;5088032;28;19956;-82
2022/01/28 09:08:44;;;;;;;;;;;2.50;99.90;;;;;;5088139;28;19924;-81
2022/01/28 09:11:33;;;;;;;;;;;2.50;99.90;;;;;;5085288;28;19928;-81
2022/01/28 09:14:00;;;;;;;;;;;2.50;99.90;;;;;;5085445;28;19928;-80
2022/01/28 09:16:28;;;;;;;;;;;2.50;99.90;;;;;;5067910;28;19931;-82
2022/01/28 09:18:56;;;;;;;;;;;2.50;99.90;;;;;;5062811;28;19985;-81
2022/01/28 09:21:23;;;;;;;;;;;2.50;99.90;;;;;;5085365;28;19932;-82
2022/01/28 09:23:50;;;;;;;;;;;2.50;99.90;;;;;;5088640;28;19928;-82
2022/01/28 09:26:17;;;;;;;;;;;2.50;99.90;;;;;;5086084;28;19931;-81
2022/01/28 09:28:44;;;;;;;;;;;2.50;99.90;;;;;;5088306;28;20465;-81
2022/01/28 09:31:11;;;;;;;;;;;2.50;99.90;;;;;;5069700;28;19978;-82
2022/01/28 09:33:40;;;;;;;;;;;2.50;99.90;;;;;;5073247;28;19924;-81
2022/01/28 09:36:08;;;;;;;;;;;2.50;99.90;;;;;;5070899;28;19931;-82
2022/01/28 09:38:35;;;;;;;;;;;2.50;99.90;;;;;;5086004;28;20017;-82
2022/01/28 09:41:04;;;;;;;;;;;2.50;99.90;;;;;;5096116;28;19924;-82
2022/01/28 09:43:31;;;;;;;;;;;2.60;99.90;;;;;;5074249;28;19930;-81
2022/01/28 09:45:58;;;;;;;;;;;2.50;99.90;;;;;;5072410;28;19928;-81
2022/01/28 09:48:25;;;;;;;;;;;2.60;99.90;;;;;;5089393;28;19924;-82
2022/01/28 09:50:54;;;;;;;;;;;2.50;99.90;;;;;;5069301;28;19932;-82
2022/01/28 09:53:21;;;;;;;;;;;2.60;99.90;;;;;;5089221;28;19924;-82
2022/01/28 09:55:50;;;;;;;;;;;2.60;99.90;;;;;;5087981;28;20715;-82
2022/01/28 09:58:17;;;;;;;;;;;2.60;99.90;;;;;;5074520;28;19924;-82
2022/01/28 10:00:44;;;;;;;;;;;2.60;99.90;;;;;;5085475;28;19924;-82
2022/01/28 10:03:13;;;;;;;;;;;2.60;99.90;;;;;;5073294;28;19925;-82
2022/01/28 10:05:41;;;;;;;;;;;2.60;99.90;;;;;;5096156;28;19928;-82
2022/01/28 10:08:10;;;;;;;;;;;2.70;99.90;;;;;;5081881;28;19940;-82
2022/01/28 10:10:42;;;;;;;;;;;2.70;99.90;;;;;;5091123;28;19928;-81
2022/01/28 10:13:11;;;;;;;;;;;2.70;99.90;;;;;;5090409;28;19928;-82
2022/01/28 10:15:51;;;;;;;;;;;2.70;99.90;;;;;;5071625;28;19931;-82
2022/01/28 10:18:19;;;;;;;;;;;2.70;99.90;;;;;;5081494;28;20391;-82
2022/01/28 10:20:46;;;;;;;;;;;2.70;99.90;;;;;;5094069;28;19928;-82
2022/01/28 10:23:14;;;;;;;;;;;2.70;99.90;;;;;;5086009;28;20390;-82
2022/01/28 10:25:43;;;;;;;;;;;2.70;99.90;;;;;;5094271;28;19928;-82
2022/01/28 10:28:10;;;;;;;;;;;2.70;99.90;;;;;;5092052;28;20290;-82
2022/01/28 10:30:38;;;;;;;;;;;2.80;99.90;;;;;;5088520;28;19959;-82
2022/01/28 10:33:15;;;;;;;;;;;2.80;99.90;;;;;;5090483;28;19947;-82
2022/01/28 10:35:50;;;;;;;;;;;2.80;99.90;;;;;;5093044;28;19999;-81
2022/01/28 10:38:34;;;;;;;;;;;2.80;99.90;;;;;;5094082;28;19931;-81
2022/01/28 10:41:09;;;;;;;;;;;2.80;99.90;;;;;;5089197;28;20019;-80
2022/01/28 10:43:42;;;;;;;;;;;2.80;99.90;;;;;;5085543;28;19924;-82
2022/01/28 10:46:09;;;;;;;;;;;2.80;99.90;;;;;;5089135;28;19932;-82
2022/01/28 10:48:49;;;;;;;;;;;2.80;99.90;;;;;;5094719;28;19924;-82
2022/01/28 10:51:17;;;;;;;;;;;2.80;99.90;;;;;;5093346;28;19936;-82
2022/01/28 10:54:02;;;;;;;;;;;2.80;99.90;;;;;;5089426;28;19924;-81
2022/01/28 10:56:29;;;;;;;;;;;2.80;99.90;;;;;;5085519;28;19954;-82
2022/01/28 10:58:57;;;;;;;;;;;2.90;99.90;;;;;;5087976;28;19988;-82
2022/01/28 11:01:25;;;;;;;;;;;2.90;99.90;;;;;;5070843;28;19931;-81
2022/01/28 11:03:54;;;;;;;;;;;2.90;99.90;;;;;;5069238;28;20416;-82
2022/01/28 11:06:22;;;;;;;;;;;2.90;99.90;;;;;;5089574;28;20071;-82
2022/01/28 11:08:50;;;;;;;;;;;2.90;99.90;;;;;;5094489;28;19953;-82
2022/01/28 11:11:17;;;;;;;;;;;2.90;99.90;;;;;;5097806;28;19984;-82
2022/01/28 11:13:46;;;;;;;;;;;2.90;99.90;;;;;;5105979;28;19959;-82
2022/01/28 11:16:14;;;;;;;;;;;2.90;99.90;;;;;;5079829;28;19935;-82
2022/01/28 11:18:41;;;;;;;;;;;2.90;99.90;;;;;;5107560;28;19924;-82
2022/01/28 11:21:13;;;;;;;;;;;2.90;99.90;;;;;;5085030;28;19908;-82
2022/01/28 11:23:47;;;;;;;;;;;3.00;99.90;;;;;;5098401;28;19925;-82
2022/01/28 11:26:19;;;;;;;;;;;3.00;99.90;;;;;;5108072;28;20433;-82
2022/01/28 11:28:50;;;;;;;;;;;3.00;99.90;;;;;;5101561;28;19931;-81
2022/01/28 11:31:37;;;;;;;;;;;3.00;99.90;;;;;;5089903;28;19924;-82
2022/01/28 11:34:14;;;;;;;;;;;3.00;99.90;;;;;;5099958;28;19964;-82
2022/01/28 11:36:41;;;;;;;;;;;3.00;99.90;;;;;;5084546;28;19924;-82
2022/01/28 11:39:20;;;;;;;;;;;3.10;99.90;;;;;;5080812;28;19932;-82
2022/01/28 11:42:02;;;;;;;;;;;3.10;99.90;;;;;;5093782;28;19928;-82
2022/01/28 11:44:54;;;;;;;;;;;3.10;99.90;;;;;;5094678;28;19936;-82
2022/01/28 11:47:22;;;;;;;;;;;3.10;99.90;;;;;;5107176;28;19915;-83
2022/01/28 11:49:54;;;;;;;;;;;3.10;99.90;;;;;;5107804;28;19954;-82
2022/01/28 11:52:22;;;;;;;;;;;3.20;99.90;;;;;;5081706;28;19995;-82
2022/01/28 11:54:49;;;;;;;;;;;3.10;99.90;;;;;;5094330;28;19928;-82
2022/01/28 11:57:17;;;;;;;;;;;3.20;99.90;;;;;;5107132;28;19995;-82
2022/01/28 11:59:45;;;;;;;;;;;3.20;99.90;;;;;;5097757;28;19947;-82
2022/01/28 12:02:17;;;;;;;;;;;3.10;99.90;;;;;;5093232;28;19924;-81
2022/01/28 12:04:45;;;;;;;;;;;3.20;99.90;;;;;;5107143;28;19924;-82
2022/01/28 12:07:15;;;;;;;;;;;3.20;99.90;;;;;;5106170;28;19924;-81
2022/01/28 12:09:43;;;;;;;;;;;3.20;99.90;;;;;;5104351;28;20002;-82
2022/01/28 12:12:12;;;;;;;;;;;3.20;99.90;;;;;;5105095;28;19938;-82
2022/01/28 12:14:58;;;;;;;;;;;3.20;99.90;;;;;;5110267;28;19916;-82
2022/01/28 12:17:44;;;;;;;;;;;3.20;99.90;;;;;;5104683;28;19924;-82
2022/01/28 12:20:23;;;;;;;;;;;3.30;99.90;;;;;;5107798;28;19908;-82
2022/01/28 12:23:21;;;;;;;;;;;3.30;99.90;;;;;;5114483;28;19914;-82
2022/01/28 12:28:24;;;;;;;;;;;3.30;99.90;;;;;;4902036;26;19917;-80
2022/01/28 12:30:58;;;;;;;;;;;3.30;99.90;;;;;;5078711;28;19940;-81
2022/01/28 12:33:55;;;;;;;;;;;3.30;99.90;;;;;;5061217;28;19935;-81
2022/01/28 12:50:03;;;;;;;;;;;3.40;99.90;;;;;;4409376;26;19939;-81
2022/01/28 12:55:08;;;;;;;;;;;3.40;99.90;;;;;;4194541;26;19909;-82
2022/01/28 13:00:14;;;;;;;;;;;3.50;99.90;;;;;;5463459;22;19976;-81
2022/01/28 13:02:42;;;;;;;;;;;3.50;99.90;;;;;;5571532;22;20145;-81
2022/01/28 13:05:15;;;;;;;;;;;3.50;99.90;;;;;;5073273;28;19984;-80
2022/01/28 13:10:28;;;;;;;;;;;3.50;99.90;;;;;;5058114;28;19916;-80
2022/01/28 13:13:03;;;;;;;;;;;3.50;99.90;;;;;;5068501;28;20019;-80
2022/01/28 13:15:31;;;;;;;;;;;3.50;99.90;;;;;;5077341;28;19935;-80
2022/01/28 13:17:59;;;;;;;;;;;3.50;99.90;;;;;;5072646;28;19916;-81
2022/01/28 13:20:35;;;;;;;;;;;3.50;99.90;;;;;;5075577;28;20024;-81
2022/01/28 13:23:02;;;;;;;;;;;3.50;99.90;;;;;;5056853;28;19925;-80
2022/01/28 13:25:30;;;;;;;;;;;3.50;99.90;;;;;;5058600;28;19927;-80
2022/01/28 13:28:00;;;;;;;;;;;3.50;99.90;;;;;;5071136;28;19948;-81
2022/01/28 13:30:31;;;;;;;;;;;3.50;99.90;;;;;;5060360;28;19925;-82
2022/01/28 13:33:02;;;;;;;;;;;3.50;99.90;;;;;;5065204;28;19924;-80
2022/01/28 13:35:32;;;;;;;;;;;3.50;99.90;;;;;;5063932;28;19943;-80
2022/01/28 13:38:03;;;;;;;;;;;3.50;99.90;;;;;;5068936;28;19924;-80
2022/01/28 13:40:33;;;;;;;;;;;3.50;99.90;;;;;;5073078;28;20418;-81
2022/01/28 13:43:00;;;;;;;;;;;3.60;99.90;;;;;;5065425;28;19955;-81
2022/01/28 13:45:32;;;;;;;;;;;3.60;99.90;;;;;;5077626;28;19936;-81
2022/01/28 13:47:59;;;;;;;;;;;3.50;99.90;;;;;;5074921;28;19912;-81
2022/01/28 13:50:30;;;;;;;;;;;3.60;99.90;;;;;;5046877;28;19929;-81
2022/01/28 13:53:21;;;;;;;;;;;3.50;99.90;;;;;;5056258;28;19925;-81
2022/01/28 13:55:48;;;;;;;;;;;3.60;99.90;;;;;;5061071;28;20211;-80
2022/01/28 13:58:15;;;;;;;;;;;3.50;99.90;;;;;;5064224;28;20027;-81
2022/01/28 14:00:43;;;;;;;;;;;3.60;99.90;;;;;;5058083;28;19928;-80
2022/01/28 14:03:18;;;;;;;;;;;3.50;99.90;;;;;;5059521;28;19933;-80
2022/01/28 14:05:55;;;;;;;;;;;3.50;99.90;;;;;;5062680;28;19970;-80
2022/01/28 14:08:40;;;;;;;;;;;3.50;99.90;;;;;;5033906;28;19925;-81
2022/01/28 14:11:21;;;;;;;;;;;3.60;99.90;;;;;;5058560;28;19929;-80
2022/01/28 14:14:03;;;;;;;;;;;3.50;99.90;;;;;;5060750;28;19932;-80
2022/01/28 14:16:30;;;;;;;;;;;3.50;99.90;;;;;;5045085;28;19944;-80
2022/01/28 14:18:57;;;;;;;;;;;3.50;99.90;;;;;;5058851;28;19929;-80
2022/01/28 14:21:24;;;;;;;;;;;3.50;99.90;;;;;;5066262;28;19929;-80
2022/01/28 14:23:53;;;;;;;;;;;3.50;99.90;;;;;;5069550;28;19912;-81
2022/01/28 14:26:21;;;;;;;;;;;3.50;99.90;;;;;;5070221;28;19941;-80
2022/01/28 14:31:34;;;;;;;;;;;3.50;99.90;;;;;;5072941;28;19925;-81
2022/01/28 14:34:02;;;;;;;;;;;3.50;99.90;;;;;;5064621;28;19921;-80
2022/01/28 14:36:40;;;;;;;;;;;3.50;99.90;;;;;;5074261;28;19916;-80
2022/01/28 14:39:09;;;;;;;;;;;3.50;99.90;;;;;;5074577;28;19931;-81
2022/01/28 14:41:39;;;;;;;;;;;3.50;99.90;;;;;;5069593;28;19936;-80
2022/01/28 14:44:07;;;;;;;;;;;3.40;99.90;;;;;;5067423;28;19933;-82
2022/01/28 14:46:35;;;;;;;;;;;3.40;99.90;;;;;;5067791;28;19928;-80
2022/01/28 14:49:04;;;;;;;;;;;3.40;99.90;;;;;;5070031;28;19925;-80
2022/01/28 14:51:32;;;;;;;;;;;3.40;99.90;;;;;;5068852;28;19919;-80
2022/01/28 15:21:17;;;;;;;;;;;3.40;99.90;;;;;;5516331;22;19916;-81
2022/01/28 15:23:44;;;;;;;;;;;3.40;99.90;;;;;;5055135;28;19980;-81
2022/01/28 15:26:12;;;;;;;;;;;3.40;99.90;;;;;;5052714;28;19994;-81
2022/01/28 15:28:49;;;;;;;;;;;3.30;99.90;;;;;;5055669;28;19933;-80
2022/01/28 15:34:16;;;;;;;;;;;3.40;99.90;;;;;;5054196;28;19921;-80
2022/01/28 15:36:44;;;;;;;;;;;3.40;99.90;;;;;;5072227;28;19913;-81
2022/01/28 15:39:11;;;;;;;;;;;3.40;99.90;;;;;;5056409;28;19909;-80
2022/01/28 15:41:40;;;;;;;;;;;3.30;99.90;;;;;;5061481;28;19923;-81
2022/01/28 15:44:08;;;;;;;;;;;3.40;99.90;;;;;;5066872;28;19992;-81
2022/01/28 15:46:37;;;;;;;;;;;3.40;99.90;;;;;;5075897;28;19951;-81
2022/01/28 15:49:04;;;;;;;;;;;3.40;99.90;;;;;;5051320;28;19975;-81
2022/01/28 15:51:32;;;;;;;;;;;3.30;99.90;;;;;;5049792;28;19921;-81
2022/01/28 15:54:00;;;;;;;;;;;3.30;99.90;;;;;;5049613;28;19933;-81
2022/01/28 15:56:28;;;;;;;;;;;3.30;99.90;;;;;;5056679;28;19913;-81
2022/01/28 15:58:55;;;;;;;;;;;3.30;99.90;;;;;;5054976;28;19909;-81
2022/01/28 16:01:27;;;;;;;;;;;3.30;99.90;;;;;;5054773;28;19914;-81
2022/01/28 16:07:00;;;;;;;;;;;3.30;99.90;;;;;;5264334;23;19939;-81
2022/01/28 16:18:39;;;;;;;;;;;3.30;99.90;;;;;;5070375;28;19951;-81
2022/01/28 16:26:24;;;;;;;;;;;3.30;99.90;;;;;;5471084;22;19921;-81
2022/01/28 16:31:28;;;;;;;;;;;3.20;99.90;;;;;;5643002;22;19938;-82
2022/01/28 16:33:58;;;;;;;;;;;3.20;99.90;;;;;;5078959;28;19948;-80
2022/01/28 16:36:26;;;;;;;;;;;3.20;99.90;;;;;;5149470;22;20976;-81
2022/01/28 16:38:54;;;;;;;;;;;3.20;99.90;;;;;;5022865;28;19969;-80
2022/01/28 16:41:23;;;;;;;;;;;3.20;99.90;;;;;;5018104;28;19969;-80
2022/01/28 16:44:02;;;;;;;;;;;3.20;99.90;;;;;;5017817;28;19941;-80
2022/01/28 16:46:31;;;;;;;;;;;3.20;99.90;;;;;;5009567;28;20396;-80
2022/01/28 16:48:59;;;;;;;;;;;3.20;99.90;;;;;;5016779;28;20841;-80
2022/01/28 16:51:26;;;;;;;;;;;3.20;99.90;;;;;;5026744;28;19933;-80
2022/01/28 16:53:54;;;;;;;;;;;3.20;99.90;;;;;;5027576;28;19929;-80
2022/01/28 16:56:21;;;;;;;;;;;3.20;99.90;;;;;;5025047;28;19936;-81
2022/01/28 16:58:49;;;;;;;;;;;3.20;99.90;;;;;;5014935;28;19992;-81
2022/01/28 17:01:16;;;;;;;;;;;3.10;99.90;;;;;;5023298;28;19926;-81
2022/01/28 17:03:45;;;;;;;;;;;3.20;99.90;;;;;;5029447;28;19937;-81